createdAt,value
2019-04-07T00:02:19.940Z,19.55
2019-04-07T00:04:48.912Z,18.32
2019-04-07T00:07:17.678Z,16.85
2019-04-07T00:09:46.159Z,17.27
2019-04-07T00:12:14.899Z,19.23
2019-04-07T00:14:43.739Z,17.62
2019-04-07T00:17:12.292Z,19.05
2019-04-07T00:19:40.793Z,18.73
2019-04-07T00:22:09.437Z,19.87
2019-04-07T00:24:37.985Z,19.05
2019-04-07T00:27:06.898Z,20.02
2019-04-07T00:29:35.549Z,17.70
2019-04-07T00:32:04.057Z,18.00
2019-04-07T00:34:32.510Z,18.52
2019-04-07T00:37:01.026Z,18.62
2019-04-07T00:39:29.620Z,17.30
2019-04-07T00:41:58.278Z,18.15
2019-04-07T00:44:26.949Z,16.12
2019-04-07T00:46:55.407Z,19.23
2019-04-07T00:49:23.895Z,16.87
2019-04-07T00:51:53.848Z,19.35
2019-04-07T00:54:22.696Z,19.55
2019-04-07T00:56:51.243Z,19.92
2019-04-07T00:59:19.720Z,18.27
2019-04-07T01:01:48.262Z,18.62
2019-04-07T01:04:16.705Z,17.02
2019-04-07T01:06:45.190Z,20.02
2019-04-07T01:09:13.687Z,18.45
2019-04-07T01:11:42.189Z,17.87
2019-04-07T01:14:10.911Z,19.80
2019-04-07T01:16:39.464Z,18.42
2019-04-07T01:19:07.914Z,19.20
2019-04-07T01:21:36.449Z,17.05
2019-04-07T01:24:05.602Z,19.07
2019-04-07T01:26:34.385Z,17.48
2019-04-07T01:29:03.088Z,16.85
2019-04-07T01:31:31.703Z,20.17
2019-04-07T01:34:00.146Z,19.40
2019-04-07T01:36:29.251Z,19.98
2019-04-07T01:38:57.899Z,18.20
2019-04-07T01:41:27.993Z,18.10
2019-04-07T01:44:00.915Z,19.62
2019-04-07T01:46:37.122Z,19.48
2019-04-07T01:49:19.399Z,17.07
2019-04-07T01:51:50.295Z,17.80
2019-04-07T01:54:27.113Z,18.10
2019-04-07T01:57:09.261Z,18.60
2019-04-07T01:59:56.109Z,18.85
2019-04-07T02:02:38.958Z,19.42
2019-04-07T02:05:28.790Z,19.23
2019-04-07T02:08:14.530Z,20.17
2019-04-07T02:10:44.706Z,18.30
2019-04-07T02:13:21.405Z,19.77
2019-04-07T02:19:44.879Z,18.17
2019-04-07T02:22:39.339Z,18.45
2019-04-07T02:25:28.403Z,17.92
2019-04-07T02:28:17.603Z,19.02
2019-04-07T02:30:54.339Z,20.60
2019-04-07T02:33:24.705Z,18.47
2019-04-07T02:38:29.546Z,19.13
2019-04-07T02:41:06.204Z,19.57
2019-04-07T02:43:55.578Z,18.27
2019-04-07T02:46:26.900Z,20.40
2019-04-07T02:49:14.175Z,20.63
2019-04-07T02:51:54.167Z,18.73
2019-04-07T02:54:27.410Z,19.07
2019-04-07T02:56:57.664Z,18.53
2019-04-07T02:59:33.611Z,19.25
2019-04-07T03:02:06.385Z,19.63
2019-04-07T03:04:42.307Z,19.90
2019-04-07T03:07:21.883Z,20.47
2019-04-07T03:09:52.092Z,19.40
2019-04-07T03:12:23.331Z,21.65
2019-04-07T03:14:54.371Z,21.07
2019-04-07T03:17:25.646Z,20.35
2019-04-07T03:20:14.091Z,19.73
2019-04-07T03:22:44.193Z,19.63
2019-04-07T03:25:17.283Z,19.50
2019-04-07T03:27:48.646Z,19.97
2019-04-07T03:30:37.534Z,20.53
2019-04-07T03:33:10.433Z,18.87
2019-04-07T03:35:46.115Z,19.80
2019-04-07T03:38:18.991Z,20.93
2019-04-07T03:40:49.819Z,18.90
2019-04-07T03:43:31.568Z,19.20
2019-04-07T03:46:07.992Z,20.00
2019-04-07T03:48:44.481Z,19.73
2019-04-07T03:51:17.621Z,19.83
2019-04-07T03:53:50.534Z,19.83
2019-04-07T03:56:38.814Z,21.07
2019-04-07T03:59:18.234Z,20.93
2019-04-07T04:01:49.637Z,18.75
2019-04-07T04:04:19.834Z,21.73
2019-04-07T04:07:20.191Z,20.92
2019-04-07T04:09:41.260Z,21.77
2019-04-07T04:12:18.175Z,18.87
2019-04-07T04:14:56.994Z,21.00
2019-04-07T04:17:25.642Z,20.87
2019-04-07T04:19:54.105Z,19.60
2019-04-07T04:22:22.965Z,19.67
2019-04-07T04:24:53.351Z,19.97
2019-04-07T04:29:51.908Z,21.40
2019-04-07T04:32:21.562Z,21.10
2019-04-07T04:34:50.624Z,19.85
2019-04-07T04:37:34.557Z,22.77
2019-04-07T04:39:49.316Z,20.35
2019-04-07T04:42:18.486Z,21.27
2019-04-07T04:44:47.772Z,20.77
2019-04-07T04:47:16.713Z,19.83
2019-04-07T04:49:45.216Z,20.87
2019-04-07T04:52:13.707Z,22.33
2019-04-07T04:54:42.245Z,20.50
2019-04-07T04:57:11.203Z,21.70
2019-04-07T04:59:40.268Z,21.73
2019-04-07T05:02:09.047Z,21.90
2019-04-07T05:04:38.447Z,22.83
2019-04-07T05:07:07.547Z,21.73
2019-04-07T05:09:45.563Z,22.03
2019-04-07T05:12:06.882Z,22.00
2019-04-07T05:14:35.579Z,22.63
2019-04-07T05:17:04.080Z,22.97
2019-04-07T05:19:33.380Z,23.50
2019-04-07T05:22:02.485Z,23.77
2019-04-07T05:24:31.280Z,23.57
2019-04-07T05:26:59.819Z,23.50
2019-04-07T05:29:29.053Z,22.77
2019-04-07T05:31:57.657Z,22.83
2019-04-07T05:34:26.613Z,22.23
2019-04-07T05:36:56.027Z,22.63
2019-04-07T05:39:24.996Z,23.27
2019-04-07T05:41:54.764Z,24.77
2019-04-07T05:44:23.397Z,23.80
2019-04-07T05:46:51.873Z,22.30
2019-04-07T05:49:23.329Z,20.93
2019-04-07T05:51:50.629Z,23.15
2019-04-07T05:54:20.782Z,22.47
2019-04-07T05:56:49.445Z,22.10
2019-04-07T05:59:17.972Z,23.90
2019-04-07T06:01:47.023Z,24.37
2019-04-07T06:04:18.343Z,22.27
2019-04-07T06:06:50.549Z,20.95
2019-04-07T06:09:18.920Z,20.88
2019-04-07T06:11:47.671Z,22.70
2019-04-07T06:14:16.998Z,22.17
2019-04-07T06:16:45.740Z,23.35
2019-04-07T06:19:14.891Z,21.68
2019-04-07T06:21:46.145Z,22.80
2019-04-07T06:24:14.577Z,20.95
2019-04-07T06:26:47.612Z,22.95
2019-04-07T06:29:13.518Z,23.80
2019-04-07T06:31:42.366Z,21.52
2019-04-07T06:34:12.163Z,21.23
2019-04-07T06:36:40.771Z,23.47
2019-04-07T06:39:09.507Z,20.88
2019-04-07T06:41:38.936Z,22.20
2019-04-07T06:44:12.701Z,21.67
2019-04-07T06:46:58.535Z,22.25
2019-04-07T06:49:32.756Z,22.55
2019-04-07T06:52:12.297Z,21.82
2019-04-07T06:54:42.394Z,23.63
2019-04-07T06:57:28.278Z,23.22
2019-04-07T07:00:04.270Z,23.77
2019-04-07T07:02:50.888Z,23.60
2019-04-07T07:05:27.839Z,23.15
2019-04-07T07:08:00.958Z,24.05
2019-04-07T07:10:50.182Z,23.10
2019-04-07T07:13:28.447Z,23.45
2019-04-07T07:15:51.830Z,23.50
2019-04-07T07:18:28.356Z,23.27
2019-04-07T07:21:03.106Z,23.30
2019-04-07T07:23:33.255Z,22.50
2019-04-07T07:26:03.082Z,22.27
2019-04-07T07:28:32.602Z,22.77
2019-04-07T07:31:01.969Z,25.35
2019-04-07T07:33:30.728Z,23.73
2019-04-07T07:35:59.351Z,23.20
2019-04-07T07:38:31.148Z,25.08
2019-04-07T07:41:01.083Z,24.55
2019-04-07T07:43:29.570Z,25.97
2019-04-07T07:48:28.304Z,25.37
2019-04-07T07:50:57.059Z,23.55
2019-04-07T07:53:27.527Z,23.18
2019-04-07T07:55:56.500Z,23.32
2019-04-07T07:58:27.923Z,23.60
2019-04-07T08:00:55.574Z,23.07
2019-04-07T08:03:24.787Z,22.45
2019-04-07T08:05:53.684Z,22.98
2019-04-07T08:08:22.287Z,22.40
2019-04-07T08:10:50.820Z,22.87
2019-04-07T08:13:20.079Z,22.37
2019-04-07T08:15:49.318Z,22.25
2019-04-07T08:18:19.850Z,21.73
2019-04-07T08:20:48.985Z,22.17
2019-04-07T08:23:17.687Z,20.77
2019-04-07T08:25:46.147Z,20.85
2019-04-07T08:28:14.742Z,20.50
2019-04-07T08:30:47.192Z,20.23
2019-04-07T08:33:13.609Z,19.75
2019-04-07T08:35:42.655Z,18.42
2019-04-07T08:38:12.113Z,19.20
2019-04-07T08:40:40.782Z,19.60
2019-04-07T08:43:09.308Z,19.98
2019-04-07T08:45:38.132Z,18.32
2019-04-07T08:48:07.327Z,18.70
2019-04-07T08:50:36.328Z,18.98
2019-04-07T08:53:04.866Z,19.45
2019-04-07T08:55:33.529Z,18.27
2019-04-07T08:58:04.298Z,17.75
2019-04-07T09:00:34.018Z,17.00
2019-04-07T09:03:07.790Z,16.75
2019-04-07T09:05:33.462Z,16.82
2019-04-07T09:08:05.544Z,16.90
2019-04-07T09:10:37.181Z,15.60
2019-04-07T09:13:08.361Z,17.32
2019-04-07T09:15:50.043Z,16.23
2019-04-07T09:18:26.565Z,15.90
2019-04-07T09:21:15.080Z,15.55
2019-04-07T09:24:01.022Z,16.15
2019-04-07T09:26:31.184Z,14.80
2019-04-07T09:29:01.363Z,16.20
2019-04-07T09:31:40.978Z,14.85
2019-04-07T09:34:23.258Z,15.95
2019-04-07T09:36:53.427Z,13.62
2019-04-07T09:39:23.659Z,14.65
2019-04-07T09:44:40.225Z,15.38
2019-04-07T09:47:15.946Z,14.90
2019-04-07T09:49:49.295Z,14.45
2019-04-07T09:52:36.156Z,14.53
2019-04-07T09:55:19.557Z,14.80
2019-04-07T09:57:50.588Z,15.05
2019-04-07T10:00:22.879Z,15.00
2019-04-07T10:02:58.521Z,14.73
2019-04-07T10:05:40.227Z,15.28
2019-04-07T10:08:17.978Z,14.23
2019-04-07T10:10:48.271Z,14.05
2019-04-07T10:13:18.896Z,14.15
2019-04-07T10:15:49.087Z,15.23
2019-04-07T10:18:36.746Z,14.50
2019-04-07T10:21:10.122Z,13.20
2019-04-07T10:23:40.408Z,14.03
2019-04-07T10:29:06.051Z,14.00
2019-04-07T10:31:45.291Z,13.72
2019-04-07T10:34:16.224Z,14.38
2019-04-07T10:37:04.556Z,14.00
2019-04-07T10:42:29.310Z,13.72
2019-04-07T10:45:00.315Z,13.48
2019-04-07T10:47:33.643Z,14.18
2019-04-07T10:50:10.093Z,12.58
2019-04-07T10:52:58.542Z,14.20
2019-04-07T10:55:35.197Z,14.23
2019-04-07T10:58:18.000Z,13.43
2019-04-07T11:00:50.640Z,12.20
2019-04-07T11:03:26.036Z,13.60
2019-04-07T11:06:11.639Z,14.50
2019-04-07T11:08:42.232Z,14.05
2019-04-07T11:11:22.256Z,14.18
2019-04-07T11:14:09.727Z,13.55
2019-04-07T11:16:43.151Z,12.95
2019-04-07T11:19:16.306Z,13.32
2019-04-07T11:21:46.770Z,12.45
2019-04-07T11:24:17.704Z,11.93
2019-04-07T11:26:56.976Z,11.97
2019-04-07T11:29:33.693Z,12.10
2019-04-07T11:32:05.418Z,11.88
2019-04-07T11:34:45.511Z,12.07
2019-04-07T11:37:33.954Z,11.78
2019-04-07T11:40:06.631Z,11.48
2019-04-07T11:42:49.078Z,12.40
2019-04-07T11:45:25.395Z,11.73
2019-04-07T11:48:01.499Z,12.80
2019-04-07T11:50:34.399Z,12.50
2019-04-07T11:53:13.683Z,12.00
2019-04-07T11:55:53.236Z,12.53
2019-04-07T11:58:32.244Z,11.75
2019-04-07T12:01:06.951Z,11.93
2019-04-07T12:03:37.544Z,11.70
2019-04-07T12:06:25.433Z,11.40
2019-04-07T12:08:55.800Z,12.10
2019-04-07T12:14:09.015Z,12.13
2019-04-07T12:19:36.658Z,11.18
2019-04-07T12:22:14.187Z,11.55
2019-04-07T12:24:45.488Z,12.75
2019-04-07T12:27:16.169Z,12.35
2019-04-07T12:29:47.114Z,12.30
2019-04-07T12:32:23.799Z,12.90
2019-04-07T12:35:06.316Z,12.37
2019-04-07T12:37:48.832Z,12.68
2019-04-07T12:40:36.545Z,12.47
2019-04-07T12:43:07.459Z,13.08
2019-04-07T12:45:38.407Z,12.25
2019-04-07T12:48:09.172Z,12.68
2019-04-07T12:50:39.456Z,12.95
2019-04-07T12:53:21.951Z,12.37
2019-04-07T12:56:09.579Z,12.58
2019-04-07T12:58:47.477Z,11.85
2019-04-07T13:01:19.838Z,12.23
2019-04-07T13:03:53.609Z,12.80
2019-04-07T13:06:26.621Z,12.33
2019-04-07T13:08:57.855Z,13.10
2019-04-07T13:11:47.168Z,13.45
2019-04-07T13:14:32.403Z,12.18
2019-04-07T13:17:17.714Z,13.55
2019-04-07T13:19:51.426Z,12.07
2019-04-07T13:22:22.430Z,12.60
2019-04-07T13:25:09.127Z,12.40
2019-04-07T13:27:42.740Z,11.30
2019-04-07T13:30:28.596Z,9.83
2019-04-07T13:33:08.107Z,11.00
2019-04-07T13:35:55.100Z,12.10
2019-04-07T13:38:40.382Z,10.93
2019-04-07T13:41:37.305Z,10.98
2019-04-07T13:44:04.767Z,10.40
2019-04-07T13:46:36.036Z,11.83
2019-04-07T13:49:04.411Z,11.22
2019-04-07T13:51:51.360Z,12.07
2019-04-07T13:54:38.345Z,10.48
2019-04-07T13:57:11.359Z,10.40
2019-04-07T13:59:58.196Z,9.95
2019-04-07T14:02:31.827Z,10.60
2019-04-07T14:05:14.936Z,10.53
2019-04-07T14:07:51.567Z,12.43
2019-04-07T14:10:20.246Z,11.83
2019-04-07T14:13:05.390Z,10.28
2019-04-07T14:15:34.788Z,10.90
2019-04-07T14:18:11.331Z,9.68
2019-04-07T14:20:54.066Z,10.85
2019-04-07T14:23:25.141Z,10.88
2019-04-07T14:26:07.856Z,10.78
2019-04-07T14:28:41.217Z,9.78
2019-04-07T14:31:17.558Z,10.82
2019-04-07T14:34:04.027Z,10.50
2019-04-07T14:36:53.552Z,10.20
2019-04-07T14:39:39.092Z,9.83
2019-04-07T14:42:29.222Z,10.03
2019-04-07T14:45:00.193Z,10.15
2019-04-07T14:47:42.607Z,10.23
2019-04-07T14:50:15.698Z,10.72
2019-04-07T14:52:51.663Z,10.58
2019-04-07T14:55:22.620Z,9.68
2019-04-07T14:57:56.476Z,9.70
2019-04-07T15:00:29.383Z,9.48
2019-04-07T15:02:58.008Z,11.03
2019-04-07T15:05:43.714Z,11.20
2019-04-07T15:08:20.440Z,10.20
2019-04-07T15:10:53.587Z,10.55
2019-04-07T15:13:28.227Z,9.73
2019-04-07T15:15:57.175Z,9.93
2019-04-07T15:18:25.814Z,9.00
2019-04-07T15:20:54.266Z,8.93
2019-04-07T15:23:23.034Z,9.63
2019-04-07T15:25:51.862Z,9.78
2019-04-07T15:28:21.565Z,10.65
2019-04-07T15:30:51.736Z,9.23
2019-04-07T15:33:21.059Z,9.05
2019-04-07T15:35:50.578Z,9.53
2019-04-07T15:38:23.849Z,9.28
2019-04-07T15:40:49.550Z,9.80
2019-04-07T15:43:19.056Z,9.03
2019-04-07T15:45:48.701Z,9.05
2019-04-07T15:48:17.270Z,9.80
2019-04-07T15:50:45.719Z,9.45
2019-04-07T15:53:15.335Z,9.75
2019-04-07T15:55:50.965Z,8.95
2019-04-07T15:58:15.013Z,9.98
2019-04-07T16:00:44.200Z,10.23
2019-04-07T16:05:45.884Z,9.90
2019-04-07T16:08:13.642Z,9.43
2019-04-07T16:10:42.504Z,9.60
2019-04-07T16:13:11.255Z,10.35
2019-04-07T16:15:42.657Z,9.80
2019-04-07T16:18:10.615Z,9.75
2019-04-07T16:20:40.357Z,10.05
2019-04-07T16:23:10.328Z,10.53
2019-04-07T16:25:40.493Z,10.00
2019-04-07T16:28:12.862Z,9.85
2019-04-07T16:30:40.674Z,11.35
2019-04-07T16:33:09.992Z,9.73
2019-04-07T16:35:38.701Z,10.08
2019-04-07T16:38:07.384Z,10.50
2019-04-07T16:40:35.925Z,9.65
2019-04-07T16:43:13.382Z,10.23
2019-04-07T16:45:34.638Z,9.08
2019-04-07T16:48:05.046Z,9.15
2019-04-07T16:53:04.514Z,9.28
2019-04-07T16:58:03.870Z,10.32
2019-04-07T17:00:32.454Z,9.63
2019-04-07T17:03:01.316Z,10.28
2019-04-07T17:05:30.296Z,10.28
2019-04-07T17:07:59.486Z,8.45
2019-04-07T17:10:30.954Z,10.38
2019-04-07T17:15:28.469Z,9.70
2019-04-07T17:17:57.078Z,10.17
2019-04-07T17:20:28.414Z,9.88
2019-04-07T17:22:56.932Z,10.55
2019-04-07T17:25:25.558Z,8.85
2019-04-07T17:27:56.013Z,10.13
2019-04-07T17:32:53.995Z,10.43
2019-04-07T17:35:23.253Z,10.65
2019-04-07T17:37:53.533Z,9.90
2019-04-07T17:40:24.611Z,10.28
2019-04-07T17:42:55.017Z,11.08
2019-04-07T17:45:34.388Z,10.38
2019-04-07T17:48:21.338Z,13.07
2019-04-07T17:50:51.641Z,11.57
2019-04-07T17:53:38.230Z,11.93
2019-04-07T17:56:18.050Z,11.15
2019-04-07T17:58:52.357Z,10.98
2019-04-07T18:01:24.714Z,11.05
2019-04-07T18:04:15.567Z,12.00
2019-04-07T18:06:47.507Z,11.73
2019-04-07T18:09:26.575Z,10.00
2019-04-07T18:12:12.809Z,10.40
2019-04-07T18:14:57.428Z,10.25
2019-04-07T18:17:36.596Z,9.15
2019-04-07T18:20:18.087Z,10.80
2019-04-07T18:22:53.216Z,9.75
2019-04-07T18:25:26.204Z,10.65
2019-04-07T18:27:59.936Z,10.23
2019-04-07T18:30:47.231Z,10.70
2019-04-07T18:33:21.789Z,10.65
2019-04-07T18:36:05.092Z,9.70
2019-04-07T18:38:42.701Z,10.10
2019-04-07T18:41:28.818Z,9.60
2019-04-07T18:44:18.399Z,10.55
2019-04-07T18:47:05.151Z,10.65
2019-04-07T18:49:51.745Z,10.10
2019-04-07T18:52:34.127Z,10.38
2019-04-07T18:55:09.538Z,10.43
2019-04-07T18:57:40.079Z,9.03
2019-04-07T19:00:31.474Z,9.38
2019-04-07T19:03:00.295Z,10.38
2019-04-07T19:05:40.628Z,9.15
2019-04-07T19:08:21.321Z,10.05
2019-04-07T19:11:07.071Z,9.80
2019-04-07T19:13:38.128Z,9.88
2019-04-07T19:16:11.116Z,10.15
2019-04-07T19:18:57.420Z,10.00
2019-04-07T19:21:38.796Z,10.68
2019-04-07T19:24:14.071Z,10.50
2019-04-07T19:26:54.576Z,9.83
2019-04-07T19:29:26.181Z,9.68
2019-04-07T19:32:05.900Z,11.18
2019-04-07T19:34:53.084Z,9.55
2019-04-07T19:37:32.585Z,10.08
2019-04-07T19:40:19.329Z,10.43
2019-04-07T19:43:06.100Z,9.38
2019-04-07T19:45:55.327Z,10.18
2019-04-07T19:48:27.202Z,9.33
2019-04-07T19:50:59.031Z,9.15
2019-04-07T19:53:38.717Z,9.88
2019-04-07T19:56:18.825Z,9.40
2019-04-07T19:59:05.935Z,9.38
2019-04-07T20:01:44.931Z,9.60
2019-04-07T20:04:31.440Z,8.55
2019-04-07T20:07:07.779Z,9.35
2019-04-07T20:09:46.779Z,8.95
2019-04-07T20:12:21.794Z,9.20
2019-04-07T20:15:08.876Z,9.63
2019-04-07T20:17:53.370Z,9.80
2019-04-07T20:20:24.373Z,9.35
2019-04-07T20:23:00.180Z,8.98
2019-04-07T20:25:31.111Z,8.08
2019-04-07T20:28:04.124Z,8.75
2019-04-07T20:30:49.395Z,9.90
2019-04-07T20:33:34.786Z,9.80
2019-04-07T20:36:23.019Z,11.22
2019-04-07T20:38:48.713Z,9.88
2019-04-07T20:41:24.797Z,10.90
2019-04-07T20:44:01.194Z,10.53
2019-04-07T20:46:47.583Z,11.38
2019-04-07T20:49:35.392Z,12.03
2019-04-07T20:52:25.053Z,11.90
2019-04-07T20:55:08.362Z,12.93
2019-04-07T20:57:46.774Z,13.13
2019-04-07T21:00:37.189Z,13.22
2019-04-07T21:03:25.595Z,13.13
2019-04-07T21:06:00.029Z,12.63
2019-04-07T21:08:34.275Z,14.03
2019-04-07T21:11:10.993Z,13.68
2019-04-07T21:13:44.302Z,14.68
2019-04-07T21:16:31.217Z,14.28
2019-04-07T21:19:05.510Z,15.30
2019-04-07T21:21:34.503Z,14.15
2019-04-07T21:24:23.212Z,15.08
2019-04-07T21:26:57.970Z,14.13
2019-04-07T21:29:34.471Z,14.18
2019-04-07T21:32:21.586Z,15.17
2019-04-07T21:34:51.859Z,15.72
2019-04-07T21:37:28.464Z,15.85
2019-04-07T21:40:17.527Z,15.55
2019-04-07T21:42:54.516Z,14.68
2019-04-07T21:45:36.818Z,14.55
2019-04-07T21:47:58.667Z,15.23
2019-04-07T21:50:31.604Z,15.18
2019-04-07T21:53:10.996Z,14.20
2019-04-07T21:55:47.679Z,15.43
2019-04-07T21:58:25.401Z,14.98
2019-04-07T22:01:09.404Z,15.90
2019-04-07T22:03:58.773Z,15.03
2019-04-07T22:06:29.850Z,14.65
2019-04-07T22:09:15.182Z,14.70
2019-04-07T22:11:44.652Z,15.95
2019-04-07T22:14:14.526Z,15.20
2019-04-07T22:16:43.253Z,15.40
2019-04-07T22:19:14.765Z,14.58
2019-04-07T22:21:42.419Z,14.20
2019-04-07T22:24:11.149Z,14.23
2019-04-07T22:26:40.588Z,13.83
2019-04-07T22:29:09.774Z,14.47
2019-04-07T22:31:46.648Z,13.62
2019-04-07T22:34:16.504Z,16.00
2019-04-07T22:36:47.611Z,15.03
2019-04-07T22:39:16.084Z,14.13
2019-04-07T22:41:44.793Z,13.87
2019-04-07T22:44:13.645Z,14.18
2019-04-07T22:46:42.107Z,15.23
2019-04-07T22:49:11.361Z,14.85
2019-04-07T22:51:43.039Z,13.50
2019-04-07T22:54:10.264Z,13.45
2019-04-07T22:56:39.919Z,15.38
2019-04-07T22:59:11.217Z,15.05
2019-04-07T23:01:39.192Z,14.45
2019-04-07T23:04:07.880Z,14.20
2019-04-07T23:06:36.370Z,16.27
2019-04-07T23:09:07.809Z,14.80
2019-04-07T23:11:36.477Z,14.73
2019-04-07T23:14:05.106Z,16.07
2019-04-07T23:16:33.556Z,15.13
2019-04-07T23:19:02.696Z,14.93
2019-04-07T23:21:31.983Z,13.93
2019-04-07T23:24:01.269Z,14.53
2019-04-07T23:26:29.952Z,15.63
2019-04-07T23:28:58.566Z,13.58
2019-04-07T23:31:27.992Z,15.20
2019-04-07T23:33:56.548Z,14.65
2019-04-07T23:36:25.242Z,15.18
2019-04-07T23:38:53.895Z,15.58
2019-04-07T23:41:22.445Z,14.35
2019-04-07T23:43:51.089Z,13.65
2019-04-07T23:46:24.197Z,15.48
2019-04-07T23:48:49.805Z,15.72
2019-04-07T23:51:18.574Z,15.28
2019-04-07T23:54:11.125Z,16.97
2019-04-07T23:56:41.633Z,14.90
